Time;durP1;ratioP1;P1;durP2;ratioP2;P2;SDS_P1;SDS_P2;PMS_P1;PMS_P2;Temp;Humidity;BMP_temperature;BMP_pressure;BME280_temperature;BME280_humidity;BME280_pressure;Samples;Min_cycle;Max_cycle;Signal;HPM_P1;HPM_P2
2022/01/10 00:00:00;;;;;;;61.13;28.52;;;;;;;-3.42;83.64;100235.48;1579217;90;20987;-72
2022/01/10 00:02:27;;;;;;;67.75;29.12;;;;;;;-3.44;83.81;100235.84;1556970;91;20915;-72
2022/01/10 00:04:53;;;;;;;62.43;28.45;;;;;;;-3.42;83.82;100238.02;1563337;90;20972;-72
2022/01/10 00:07:19;;;;;;;49.00;22.05;;;;;;;-3.41;83.82;100245.20;1591830;90;21002;-72
2022/01/10 00:09:45;;;;;;;63.25;28.47;;;;;;;-3.43;83.78;100241.75;1545363;90;20983;-72
2022/01/10 00:12:11;;;;;;;71.00;30.27;;;;;;;-3.44;83.79;100243.83;1536174;93;20948;-72
2022/01/10 00:14:37;;;;;;;65.72;30.32;;;;;;;-3.42;83.85;100243.48;1544607;91;20947;-72
2022/01/10 00:17:04;;;;;;;62.55;27.75;;;;;;;-3.42;83.85;100245.60;1544868;90;21086;-72
2022/01/10 00:19:30;;;;;;;64.40;28.80;;;;;;;-3.45;83.65;100250.95;1550918;91;20969;-72
2022/01/10 00:21:56;;;;;;;67.92;30.30;;;;;;;-3.53;83.61;100251.95;1539582;91;27038;-72
2022/01/10 00:24:23;;;;;;;63.90;29.42;;;;;;;-3.56;83.64;100262.36;1539435;92;20975;-72
2022/01/10 00:26:49;;;;;;;57.40;24.35;;;;;;;-3.61;83.62;100262.59;1564471;91;20911;-72
2022/01/10 00:29:15;;;;;;;72.40;30.15;;;;;;;-3.63;83.70;100270.53;1544481;91;21009;-72
2022/01/10 00:31:42;;;;;;;66.55;30.65;;;;;;;-3.64;83.75;100268.84;1536575;92;21492;-72
2022/01/10 00:34:08;;;;;;;72.92;30.50;;;;;;;-3.67;83.69;100282.22;1597784;88;26826;-72
2022/01/10 00:36:34;;;;;;;66.90;29.87;;;;;;;-3.70;83.71;100285.50;1585216;90;21496;-72
2022/01/10 00:39:00;;;;;;;66.95;31.25;;;;;;;-3.73;83.69;100292.97;1554231;90;20973;-72
2022/01/10 00:41:26;;;;;;;65.75;30.88;;;;;;;-3.73;83.81;100292.97;1569697;90;20940;-72
2022/01/10 00:43:52;;;;;;;65.50;29.27;;;;;;;-3.72;83.87;100295.95;1587144;88;20984;-72
2022/01/10 00:46:19;;;;;;;70.87;31.65;;;;;;;-3.68;83.92;100304.51;1597690;89;20926;-72
2022/01/10 00:48:45;;;;;;;78.15;30.97;;;;;;;-3.69;83.84;100304.05;1597633;89;21509;-72
2022/01/10 00:51:11;;;;;;;78.83;32.15;;;;;;;-3.70;83.84;100303.19;1592601;88;20966;-72
2022/01/10 00:53:37;;;;;;;73.87;30.72;;;;;;;-3.69;83.86;100311.22;1572849;89;20978;-72
2022/01/10 00:56:08;;;;;;;76.07;31.75;;;;;;;-3.69;83.85;100320.06;1581185;88;26893;-72
2022/01/10 00:58:32;;;;;;;71.07;29.80;;;;;;;-3.65;83.90;100328.62;1582516;89;21106;-72
2022/01/10 01:00:58;;;;;;;71.80;31.23;;;;;;;-3.64;83.84;100325.69;1597129;89;21091;-72
2022/01/10 01:03:25;;;;;;;67.95;30.75;;;;;;;-3.62;83.90;100336.27;1552679;91;20924;-72
2022/01/10 01:05:51;;;;;;;70.05;30.88;;;;;;;-3.61;83.83;100339.27;1573201;89;20930;-72
2022/01/10 01:08:17;;;;;;;62.73;29.77;;;;;;;-3.60;83.87;100347.30;1572595;89;20994;-72
2022/01/10 01:24:02;;;;;;;60.43;28.80;;;;;;;-3.57;83.79;100361.31;1569463;91;20971;-72
2022/01/10 01:26:32;;;;;;;68.52;28.95;;;;;;;-3.59;83.66;100379.34;1611090;88;20951;-72
2022/01/10 01:28:58;;;;;;;71.47;30.12;;;;;;;-3.68;83.63;100382.83;1575158;89;20918;-72
2022/01/10 01:31:24;;;;;;;78.62;34.03;;;;;;;-3.65;83.68;100389.66;1583650;88;21003;-72
2022/01/10 01:33:51;;;;;;;65.28;31.40;;;;;;;-3.67;83.65;100397.18;1601701;88;20968;-72
2022/01/10 01:36:22;;;;;;;62.62;28.38;;;;;;;-3.69;83.64;100408.89;1566270;89;21002;-72
2022/01/10 01:38:45;;;;;;;67.00;29.92;;;;;;;-3.70;83.66;100401.72;1551729;91;20982;-72
2022/01/10 01:41:22;;;;;;;63.52;28.17;;;;;;;-3.68;83.79;100399.25;1555820;89;21002;-72
2022/01/10 01:43:40;;;;;;;67.10;29.40;;;;;;;-3.67;83.95;100403.50;1555374;91;20987;-72
2022/01/10 01:46:07;;;;;;;63.78;27.27;;;;;;;-3.70;83.64;100411.82;1572615;89;20960;-72
2022/01/10 01:48:34;;;;;;;66.05;28.90;;;;;;;-3.85;83.63;100398.61;1568767;89;20987;-72
2022/01/10 01:51:01;;;;;;;60.25;27.58;;;;;;;-3.79;83.65;100409.34;1564179;90;21002;-72
2022/01/10 01:53:27;;;;;;;70.67;28.67;;;;;;;-3.76;83.80;100410.33;1552042;91;20966;-72
2022/01/10 01:55:59;;;;;;;57.85;28.62;;;;;;;-3.73;83.81;100422.21;1560306;89;20975;-72
2022/01/10 01:58:27;;;;;;;64.40;28.62;;;;;;;-3.73;83.81;100429.79;1576067;91;20962;-72
2022/01/10 02:00:54;;;;;;;70.50;29.90;;;;;;;-3.73;83.79;100437.37;1576593;89;21824;-72
2022/01/10 02:03:20;;;;;;;64.80;28.27;;;;;;;-3.70;83.80;100446.33;1576242;89;20975;-72
2022/01/10 02:05:45;;;;;;;65.57;29.50;;;;;;;-3.76;83.61;100443.17;1595449;89;20932;-72
2022/01/10 02:08:12;;;;;;;63.92;29.65;;;;;;;-3.85;83.48;100450.78;1586633;89;20938;-72
2022/01/10 02:10:39;;;;;;;68.28;28.73;;;;;;;-3.97;83.88;100462.93;1587570;89;21496;-72
2022/01/10 02:13:05;;;;;;;63.33;29.15;;;;;;;-3.97;83.88;100462.93;1560140;91;20974;-72
2022/01/10 02:15:49;;;;;;;67.92;30.95;;;;;;;-3.96;83.69;100463.39;1557178;89;20978;-72
2022/01/10 02:18:11;;;;;;;73.47;28.70;;;;;;;-3.94;83.78;100468.97;1553236;91;20923;-72
2022/01/10 02:20:37;;;;;;;60.83;28.92;;;;;;;-3.97;83.75;100466.32;1576394;90;20982;-72
2022/01/10 02:23:03;;;;;;;65.32;29.18;;;;;;;-3.91;83.77;100474.54;1568294;91;21045;-72
2022/01/10 02:25:29;;;;;;;69.50;31.75;;;;;;;-3.93;83.73;100471.95;1556061;89;21097;-72
2022/01/10 02:27:55;;;;;;;61.90;29.45;;;;;;;-3.91;83.78;100473.28;1588390;89;21323;-72
2022/01/10 02:30:21;;;;;;;72.70;30.95;;;;;;;-3.91;83.76;100479.59;1565259;89;21634;-72
2022/01/10 02:32:48;;;;;;;63.80;29.35;;;;;;;-3.93;83.74;100482.45;1578173;89;21016;-72
2022/01/10 02:35:23;;;;;;;;;;;;;;;-3.92;83.77;100480.39;1600020;88;20972;-72
2022/01/10 02:37:52;;;;;;;65.32;28.90;;;;;;;-3.96;83.73;100485.72;1587193;89;20445;-72
2022/01/10 02:40:21;;;;;;;69.72;30.97;;;;;;;-3.98;83.71;100493.63;1592789;88;20927;-72
2022/01/10 02:42:47;;;;;;;66.65;28.98;;;;;;;-4.00;83.66;100499.02;1597264;89;20935;-72
2022/01/10 02:45:15;;;;;;;64.12;29.70;;;;;;;-4.04;83.67;100506.88;1596809;88;20998;-72
2022/01/10 02:47:41;;;;;;;66.57;29.37;;;;;;;-4.08;83.50;100519.31;1587689;89;21523;-72
2022/01/10 02:50:09;;;;;;;64.65;28.38;;;;;;;-4.08;83.50;100519.31;1590199;89;20994;-72
2022/01/10 02:52:35;;;;;;;67.00;28.60;;;;;;;-4.08;83.70;100520.17;1572349;89;21011;-72
2022/01/10 02:55:02;;;;;;;69.53;29.10;;;;;;;-4.19;83.60;100512.98;1553311;91;21025;-72
2022/01/10 02:57:28;;;;;;;60.25;27.80;;;;;;;-4.13;83.69;100527.95;1596575;88;26944;-72
2022/01/10 02:59:56;;;;;;;55.15;27.42;;;;;;;-4.12;83.76;100532.20;1596861;89;20923;-72
2022/01/10 03:02:26;;;;;;;61.65;27.73;;;;;;;-4.10;83.79;100534.80;1569310;91;21528;-72
2022/01/10 03:04:50;;;;;;;58.38;26.17;;;;;;;-4.11;83.73;100540.64;1596979;89;21562;-72
2022/01/10 03:07:23;;;;;;;68.45;28.20;;;;;;;-4.13;83.81;100544.38;1569482;91;20914;-72
2022/01/10 03:09:47;;;;;;;71.40;28.57;;;;;;;-4.11;83.72;100554.53;1559515;90;20924;-72
2022/01/10 03:12:15;;;;;;;61.48;29.10;;;;;;;-4.16;83.73;100540.89;1572525;89;20954;-72
2022/01/10 03:14:42;;;;;;;67.78;29.12;;;;;;;-4.13;83.69;100551.94;1572555;91;21506;-72
2022/01/10 03:17:10;;;;;;;63.05;28.12;;;;;;;-4.14;83.70;100556.53;1575470;88;20979;-72
2022/01/10 03:19:38;;;;;;;61.25;27.60;;;;;;;-4.25;83.58;100548.94;1565013;91;20972;-72
2022/01/10 03:22:05;;;;;;;66.15;27.42;;;;;;;-4.25;83.58;100548.94;1589297;88;20998;-72
2022/01/10 03:24:32;;;;;;;60.03;28.15;;;;;;;-4.15;83.70;100567.42;1582109;89;20962;-72
2022/01/10 03:26:58;;;;;;;59.00;27.45;;;;;;;-4.22;83.67;100557.90;1612195;88;20983;-72
2022/01/10 03:29:24;;;;;;;59.05;27.22;;;;;;;-4.17;83.69;100569.05;1597875;88;25288;-72
2022/01/10 03:31:50;;;;;;;64.70;27.20;;;;;;;-4.16;83.72;100576.23;1597115;89;20932;-72
2022/01/10 03:34:17;;;;;;;64.35;28.38;;;;;;;-4.15;83.67;100579.19;1592712;89;21053;-72
2022/01/10 03:36:44;;;;;;;63.60;27.52;;;;;;;-4.16;83.78;100580.84;1589199;89;20929;-72
2022/01/10 03:39:12;;;;;;;69.90;27.55;;;;;;;-4.12;83.78;100581.44;1604550;89;20957;-72
2022/01/10 03:41:38;;;;;;;71.70;30.40;;;;;;;-4.14;83.61;100591.02;1562681;91;20939;-72
2022/01/10 03:44:07;;;;;;;71.25;29.30;;;;;;;-4.14;83.61;100591.02;1559980;88;20960;-72
2022/01/10 03:46:34;;;;;;;71.82;29.95;;;;;;;-4.17;83.68;100589.25;1569187;89;20963;-72
2022/01/10 03:49:01;;;;;;;76.65;30.85;;;;;;;-4.16;83.72;100600.22;1550731;91;20914;-72
2022/01/10 03:51:27;;;;;;;68.70;30.55;;;;;;;-4.17;83.71;100608.59;1563398;91;21018;-72
2022/01/10 03:53:53;;;;;;;;;;;;;;;-4.18;83.69;100606.86;1564390;91;20959;-72
2022/01/10 03:56:21;;;;;;;;;;;;;;;-4.18;83.73;100608.12;1575348;89;20189;-72
2022/01/10 03:58:47;;;;;;;76.05;30.50;;;;;;;-4.21;83.66;100617.69;1598114;89;20147;-72
2022/01/10 04:01:14;;;;;;;72.47;29.40;;;;;;;-4.22;83.68;100619.75;1600954;89;20969;-72
2022/01/10 04:03:41;;;;;;;78.17;31.55;;;;;;;-4.36;83.87;100606.93;1597973;89;21479;-72
2022/01/10 04:06:08;;;;;;;81.57;31.85;;;;;;;-4.36;83.87;100606.93;1549058;91;21040;-72
2022/01/10 04:08:35;;;;;;;75.12;31.73;;;;;;;-4.28;83.64;100639.67;1568909;89;21479;-72
2022/01/10 04:11:02;;;;;;;79.53;35.92;;;;;;;-4.30;83.67;100642.53;1585260;89;21466;-72
2022/01/10 04:13:28;;;;;;;78.02;34.05;;;;;;;-4.31;83.71;100644.59;1550892;89;20948;-72
2022/01/10 04:15:54;;;;;;;77.70;34.18;;;;;;;-4.30;83.50;100650.10;1585713;89;22123;-72
2022/01/10 04:18:20;;;;;;;76.12;31.27;;;;;;;-4.31;83.66;100662.66;1573479;91;21394;-72
2022/01/10 04:20:47;;;;;;;70.72;32.30;;;;;;;-4.34;83.72;100668.03;1562794;91;25486;-72
2022/01/10 04:23:15;;;;;;;80.55;35.58;;;;;;;-4.35;83.68;100673.02;1572127;90;21806;-72
2022/01/10 04:25:42;;;;;;;71.30;32.60;;;;;;;-4.36;83.68;100677.59;1577328;89;21466;-72
2022/01/10 04:28:08;;;;;;;66.97;31.15;;;;;;;-4.36;83.70;100682.25;1587686;90;21031;-72
2022/01/10 04:30:35;;;;;;;;;;;;;;;-4.36;83.73;100686.03;1551335;91;21882;-72
2022/01/10 04:33:02;;;;;;;67.65;30.12;;;;;;;-4.37;83.75;100691.01;1565784;89;20782;-72
2022/01/10 04:35:30;;;;;;;67.87;29.05;;;;;;;-4.37;83.66;100707.41;1561205;88;21478;-72
2022/01/10 04:37:56;;;;;;;68.45;30.80;;;;;;;-4.39;83.65;100714.05;1559725;91;21443;-72
2022/01/10 04:40:24;;;;;;;67.65;29.35;;;;;;;-4.50;83.72;100693.38;1569925;89;25210;-72
2022/01/10 04:42:50;;;;;;;68.97;30.57;;;;;;;-4.41;83.66;100727.00;1559508;89;21908;-72
2022/01/10 04:45:16;;;;;;;73.70;32.23;;;;;;;-4.41;83.70;100727.86;1606477;89;20989;-72
2022/01/10 04:47:42;;;;;;;71.90;31.02;;;;;;;-4.40;83.69;100737.56;1541945;90;21418;-72
2022/01/10 04:52:50;;;;;;;68.80;30.32;;;;;;;-4.41;83.72;100751.84;1556327;90;21403;-72
2022/01/10 04:55:17;;;;;;;70.25;30.77;;;;;;;-4.38;83.79;100752.37;1553550;89;21446;-72
2022/01/10 04:57:43;;;;;;;64.10;29.65;;;;;;;-4.34;83.79;100758.89;1576492;91;20946;-72
2022/01/10 05:00:13;;;;;;;68.05;30.25;;;;;;;-4.34;83.79;100758.89;1567449;89;21513;-72
2022/01/10 05:02:45;;;;;;;67.25;30.92;;;;;;;-4.33;83.72;100763.55;1568821;89;20958;-72
2022/01/10 05:05:12;;;;;;;71.75;30.92;;;;;;;-4.34;83.77;100781.61;1578006;89;21415;-72
2022/01/10 05:07:38;;;;;;;66.72;30.65;;;;;;;-4.34;83.77;100781.61;1590575;89;22066;-72
2022/01/10 05:10:05;;;;;;;69.15;30.72;;;;;;;-4.33;83.72;100783.73;1585086;89;21407;-72
2022/01/10 05:12:31;;;;;;;65.05;29.07;;;;;;;-4.34;83.71;100787.92;1552814;91;21451;-74
2022/01/10 05:14:57;;;;;;;63.52;29.85;;;;;;;-4.35;83.63;100785.33;1583131;89;28571;-74
2022/01/10 05:17:24;;;;;;;64.37;30.30;;;;;;;-4.39;83.55;100794.81;1576298;89;20923;-76
2022/01/10 05:19:51;;;;;;;75.57;31.45;;;;;;;-4.42;83.53;100804.36;1569454;90;21003;-74
2022/01/10 05:22:17;;;;;;;73.22;33.28;;;;;;;-4.47;83.44;100809.98;1582607;89;21745;-75
2022/01/10 05:24:43;;;;;;;87.75;38.92;;;;;;;-4.51;83.46;100814.02;1577889;89;21927;-71
2022/01/10 05:27:09;;;;;;;78.07;35.60;;;;;;;-4.54;83.42;100818.92;1546125;89;28555;-72
2022/01/10 05:29:35;;;;;;;73.12;32.58;;;;;;;-4.60;83.38;100830.37;1569019;89;22249;-72
2022/01/10 05:32:02;;;;;;;78.57;34.43;;;;;;;-4.66;83.40;100828.03;1571677;89;22432;-74
2022/01/10 05:34:30;;;;;;;79.00;35.28;;;;;;;-4.68;83.45;100828.35;1550268;91;28210;-72
2022/01/10 05:36:56;;;;;;;72.55;33.85;;;;;;;-4.68;83.50;100827.52;1564473;89;21541;-72
2022/01/10 05:39:22;;;;;;;81.53;35.75;;;;;;;-4.72;83.46;100830.29;1573169;89;22284;-72
2022/01/10 05:41:48;;;;;;;77.30;34.48;;;;;;;-4.75;83.42;100833.06;1575283;89;21002;-72
2022/01/10 05:44:14;;;;;;;80.35;34.27;;;;;;;-4.81;83.33;100839.93;1579517;89;24517;-72
2022/01/10 05:46:42;;;;;;;76.00;33.70;;;;;;;-4.83;83.38;100838.98;1570210;89;20938;-72
2022/01/10 05:49:12;;;;;;;76.92;34.33;;;;;;;-4.86;83.38;100836.71;1570326;89;20973;-72
2022/01/10 05:51:39;;;;;;;78.78;36.25;;;;;;;-4.89;83.41;100841.20;1573706;89;20959;-72
2022/01/10 05:54:07;;;;;;;89.40;36.05;;;;;;;-4.90;83.40;100844.52;1567429;89;26898;-72
2022/01/10 05:56:34;;;;;;;84.87;37.80;;;;;;;-4.94;83.39;100848.94;1554894;89;20939;-72
2022/01/10 05:59:02;;;;;;;100.10;42.80;;;;;;;-4.95;83.39;100853.52;1560950;90;20953;-72
2022/01/10 06:01:28;;;;;;;73.78;33.88;;;;;;;-4.98;83.40;100866.36;1563196;91;21530;-73
2022/01/10 06:03:54;;;;;;;79.92;34.55;;;;;;;-5.00;83.47;100870.06;1553986;89;21039;-73
2022/01/10 06:06:20;;;;;;;90.40;38.48;;;;;;;-5.01;83.45;100879.68;1547547;91;20984;-72
2022/01/10 06:08:46;;;;;;;82.72;40.38;;;;;;;-5.05;83.48;100888.74;1574945;89;20944;-72
2022/01/10 06:11:12;;;;;;;113.10;51.18;;;;;;;-5.05;83.54;100899.22;1593201;88;20981;-72
2022/01/10 06:13:39;;;;;;;97.78;45.28;;;;;;;-5.05;83.58;100907.66;1598619;89;20969;-72
2022/01/10 06:16:05;;;;;;;113.00;48.98;;;;;;;-5.04;83.57;100910.64;1577574;89;20946;-72
2022/01/10 06:18:31;;;;;;;139.12;62.62;;;;;;;-5.05;83.53;100920.26;1580253;89;21414;-72
2022/01/10 06:20:57;;;;;;;174.57;73.72;;;;;;;-5.07;83.55;100925.61;1581704;89;20957;-72
2022/01/10 06:23:23;;;;;;;101.67;45.25;;;;;;;-5.08;83.57;100930.58;1577107;89;20972;-72
2022/01/10 06:25:49;;;;;;;76.42;32.67;;;;;;;-5.07;83.64;100939.88;1570344;89;21066;-72
2022/01/10 06:28:15;;;;;;;67.62;31.82;;;;;;;-5.09;83.56;100934.75;1570330;89;21146;-72
2022/01/10 06:30:41;;;;;;;192.45;86.70;;;;;;;-5.11;83.55;100951.84;1573841;89;21071;-72
2022/01/10 06:33:07;;;;;;;134.40;60.08;;;;;;;-5.12;83.60;100963.98;1581862;89;20928;-72
2022/01/10 06:35:34;;;;;;;116.95;51.95;;;;;;;-5.13;83.54;100975.72;1559079;89;21081;-72
2022/01/10 06:38:00;;;;;;;145.35;60.67;;;;;;;-5.15;83.51;100976.03;1553333;91;21075;-72
2022/01/10 06:40:26;;;;;;;130.00;57.23;;;;;;;-5.17;83.50;100984.30;1554354;89;21000;-72
2022/01/10 06:42:52;;;;;;;127.05;54.70;;;;;;;-5.18;83.53;100991.38;1541471;91;21067;-72
2022/01/10 06:45:18;;;;;;;106.12;48.83;;;;;;;-5.20;83.44;100995.12;1545114;92;20948;-72
2022/01/10 06:47:44;;;;;;;105.10;50.05;;;;;;;-5.22;83.45;101009.29;1550300;90;21054;-72
2022/01/10 06:50:11;;;;;;;105.60;51.80;;;;;;;-5.20;83.58;101011.89;1540179;92;21095;-72
2022/01/10 06:52:37;;;;;;;;;;;;;;;-5.19;83.59;101015.72;1555814;90;21172;-72
2022/01/10 06:55:03;;;;;;;95.03;40.17;;;;;;;-5.20;83.51;101017.80;1600030;88;20273;-72
2022/01/10 06:57:29;;;;;;;90.07;39.08;;;;;;;-5.22;83.40;101023.16;1553578;89;21824;-72
2022/01/10 06:59:55;;;;;;;74.10;31.90;;;;;;;-5.26;83.38;101026.30;1551710;90;20999;-72
2022/01/10 07:02:22;;;;;;;71.40;31.05;;;;;;;-5.29;83.37;101036.20;1539822;90;26579;-73
2022/01/10 07:04:47;;;;;;;79.90;36.08;;;;;;;-5.29;83.38;101034.08;1547135;90;23869;-73
2022/01/10 07:07:14;;;;;;;75.80;29.70;;;;;;;-5.32;83.33;101042.73;1545697;91;20988;-73
2022/01/10 07:09:39;;;;;;;61.63;27.67;;;;;;;-5.36;83.33;101051.78;1547830;90;20901;-72
2022/01/10 07:12:07;;;;;;;61.02;28.57;;;;;;;-5.40;83.31;101050.74;1585810;88;20871;-72
2022/01/10 07:14:34;;;;;;;63.38;30.15;;;;;;;-5.43;83.30;101057.27;1539641;92;20912;-72
2022/01/10 07:17:00;;;;;;;68.15;30.27;;;;;;;-5.47;83.27;101062.53;1551654;92;21051;-72
2022/01/10 07:19:27;;;;;;;70.97;31.60;;;;;;;-5.48;83.30;101071.27;1544475;90;21162;-72
2022/01/10 07:21:54;;;;;;;66.47;30.20;;;;;;;-5.50;83.31;101074.95;1553134;90;21085;-72
2022/01/10 07:24:21;;;;;;;84.52;42.88;;;;;;;-5.51;83.32;101077.00;1533956;91;21798;-73
2022/01/10 07:26:47;;;;;;;61.77;29.87;;;;;;;-5.53;83.26;101081.48;1542749;91;20992;-73
2022/01/10 07:29:13;;;;;;;62.15;28.62;;;;;;;-5.57;83.25;101087.98;1547263;90;20924;-73
2022/01/10 07:31:40;;;;;;;67.45;29.07;;;;;;;-5.62;83.25;101087.26;1548617;90;20972;-73
2022/01/10 07:34:07;;;;;;;58.95;27.02;;;;;;;-5.65;83.31;101092.98;1547204;90;20944;-72
2022/01/10 07:36:35;;;;;;;65.47;29.63;;;;;;;-5.66;83.33;101099.67;1554628;90;20985;-72
2022/01/10 07:39:01;;;;;;;69.65;34.27;;;;;;;-5.66;83.37;101108.49;1559879;89;21103;-72
2022/01/10 07:41:27;;;;;;;70.03;33.83;;;;;;;-5.61;83.50;101106.23;1577555;89;21116;-72
2022/01/10 07:43:56;;;;;;;67.30;30.88;;;;;;;-5.55;83.57;101112.01;1576633;89;21186;-72
2022/01/10 07:46:21;;;;;;;111.92;57.95;;;;;;;-5.50;83.52;101118.17;1569103;89;21154;-72
2022/01/10 07:48:47;;;;;;;74.20;32.58;;;;;;;-5.50;83.43;101127.86;1555086;90;21109;-72
2022/01/10 07:51:13;;;;;;;82.22;35.92;;;;;;;-5.52;83.33;101142.02;1554698;90;21165;-72
2022/01/10 07:53:41;;;;;;;72.95;35.60;;;;;;;-5.50;83.47;101142.11;1581281;89;21124;-72
2022/01/10 07:56:08;;;;;;;75.15;36.28;;;;;;;-5.44;83.61;101143.33;1574984;89;21580;-73
2022/01/10 07:58:35;;;;;;;79.15;36.20;;;;;;;-5.38;83.66;101152.49;1537061;89;21139;-73
2022/01/10 08:01:02;;;;;;;74.67;34.58;;;;;;;-5.32;83.69;101157.40;1553084;90;21124;-73
2022/01/10 08:03:27;;;;;;;77.70;34.95;;;;;;;-5.24;83.81;101165.87;1569931;89;23991;-72
2022/01/10 08:05:54;;;;;;;77.58;34.10;;;;;;;-5.16;83.82;101172.56;1573753;89;21024;-72
2022/01/10 08:08:20;;;;;;;76.05;35.33;;;;;;;-5.11;83.78;101170.78;1556303;89;21111;-72
2022/01/10 08:10:47;;;;;;;73.28;36.23;;;;;;;-5.05;83.79;101174.03;1588075;89;21139;-72
2022/01/10 08:13:12;;;;;;;;;;;;;;;-5.01;83.74;101179.33;1573744;89;21662;-72
2022/01/10 08:15:38;;;;;;;;;;;;;;;-4.95;83.84;101177.55;1562693;89;20215;-72
2022/01/10 08:18:07;;;;;;;71.82;31.48;;;;;;;-4.85;83.94;101181.44;1569847;89;20247;-72
2022/01/10 08:20:33;;;;;;;81.37;36.83;;;;;;;-4.79;83.87;101188.95;1567760;89;21090;-73
2022/01/10 08:23:02;;;;;;;80.38;38.10;;;;;;;-4.71;83.91;101190.23;1569806;89;21070;-72
2022/01/10 08:25:29;;;;;;;87.15;39.40;;;;;;;-4.68;83.87;101194.58;1563035;89;21101;-72
2022/01/10 08:27:55;;;;;;;83.25;39.30;;;;;;;-4.61;83.89;101202.92;1555631;90;21122;-73
2022/01/10 08:30:21;;;;;;;88.45;39.95;;;;;;;-4.55;83.92;101210.83;1580540;89;21760;-72
2022/01/10 08:32:50;;;;;;;84.37;39.40;;;;;;;-4.48;83.98;101220.47;1567591;89;21032;-72
2022/01/10 08:35:14;;;;;;;79.92;37.63;;;;;;;-4.44;83.92;101225.28;1548624;90;21133;-72
2022/01/10 08:37:40;;;;;;;66.75;29.23;;;;;;;-4.39;83.96;101217.17;1563476;89;20936;-73
2022/01/10 08:40:07;;;;;;;88.70;39.70;;;;;;;-4.32;83.97;101233.91;1556176;90;21128;-72
2022/01/10 08:42:33;;;;;;;85.42;39.83;;;;;;;-4.25;84.00;101242.29;1565552;89;21157;-72
2022/01/10 08:44:59;;;;;;;86.63;41.53;;;;;;;-4.29;84.02;101217.66;1558177;91;21196;-72
2022/01/10 08:47:27;;;;;;;82.05;39.50;;;;;;;-4.12;84.05;101245.91;1572019;89;21130;-72
2022/01/10 08:49:59;;;;;;;93.50;42.05;;;;;;;-4.06;84.03;101251.28;1538090;90;21116;-72
2022/01/10 08:52:25;;;;;;;83.75;40.70;;;;;;;-4.00;84.04;101257.53;1552090;91;21527;-72
2022/01/10 08:54:51;;;;;;;90.97;43.00;;;;;;;-3.94;84.06;101267.08;1561732;90;21103;-72
2022/01/10 08:57:18;;;;;;;86.42;42.93;;;;;;;-3.88;84.04;101279.17;1573533;89;21153;-72
2022/01/10 08:59:45;;;;;;;83.30;41.20;;;;;;;-3.83;84.03;101282.80;1561517;90;21104;-72
2022/01/10 09:02:11;;;;;;;;;;;;;;;-3.84;84.02;101278.14;1604959;87;20943;-72
2022/01/10 09:04:39;;;;;;;86.32;39.08;;;;;;;-3.75;84.03;101301.37;1599530;87;20118;-72
2022/01/10 09:07:08;;;;;;;85.20;40.83;;;;;;;-3.70;84.06;101305.40;1544931;90;21109;-72
2022/01/10 09:09:33;;;;;;;89.40;41.30;;;;;;;-3.65;84.07;101308.17;1554218;91;21139;-73
2022/01/10 09:11:59;;;;;;;83.58;42.25;;;;;;;-3.60;84.09;101314.30;1572751;89;21113;-73
2022/01/10 09:14:25;;;;;;;85.57;43.90;;;;;;;-3.57;84.10;101320.38;1564883;89;21128;-73
2022/01/10 09:16:51;;;;;;;94.37;41.90;;;;;;;-3.52;84.08;101328.20;1604703;88;21034;-73
2022/01/10 09:19:17;;;;;;;92.10;43.95;;;;;;;-3.47;84.10;101338.16;1589807;87;21093;-72
2022/01/10 09:21:43;;;;;;;93.07;44.48;;;;;;;-3.41;84.14;101346.06;1602918;88;21837;-72
2022/01/10 09:24:09;;;;;;;93.78;45.80;;;;;;;-3.37;84.13;101346.70;1607878;87;21105;-73
2022/01/10 09:26:35;;;;;;;93.22;44.60;;;;;;;-3.32;84.12;101344.01;1592071;87;21256;-73
2022/01/10 09:29:02;;;;;;;104.95;46.98;;;;;;;-3.29;84.09;101352.15;1566583;89;21098;-72
2022/01/10 09:31:28;;;;;;;97.40;46.98;;;;;;;-3.28;84.08;101352.23;1591583;89;21120;-75
2022/01/10 09:33:55;;;;;;;102.62;49.20;;;;;;;-3.23;84.11;101363.45;1587648;88;21128;-76
2022/01/10 09:36:25;;;;;;;95.60;47.05;;;;;;;-3.19;84.13;101370.80;1572671;89;22062;-75
2022/01/10 09:38:52;;;;;;;104.67;51.80;;;;;;;-3.16;84.15;101364.23;1565761;90;21112;-76
2022/01/10 09:41:19;;;;;;;94.13;47.27;;;;;;;-3.13;84.14;101376.17;1551158;90;21095;-76
2022/01/10 09:43:57;;;;;;;93.30;46.88;;;;;;;-3.08;84.19;101374.71;1553889;90;21101;-76
2022/01/10 09:46:24;;;;;;;97.88;46.98;;;;;;;-3.02;84.21;101381.34;1553458;90;21076;-77
2022/01/10 09:48:52;;;;;;;94.83;45.73;;;;;;;-2.95;84.24;101380.87;1544997;90;21009;-76
2022/01/10 09:51:19;;;;;;;96.32;47.03;;;;;;;-2.89;84.25;101391.30;1533634;90;20942;-76
2022/01/10 09:53:46;;;;;;;100.45;49.65;;;;;;;-2.83;84.25;101395.41;1572731;90;20970;-76
2022/01/10 09:56:13;;;;;;;98.75;47.10;;;;;;;-2.78;84.23;101400.70;1550658;90;21871;-76
2022/01/10 09:58:39;;;;;;;100.15;48.70;;;;;;;-2.72;84.28;101404.41;1555957;90;21046;-76
2022/01/10 10:01:05;;;;;;;73.57;35.33;;;;;;;-2.67;84.28;101404.24;1556575;90;20953;-76
2022/01/10 10:03:31;;;;;;;98.47;45.73;;;;;;;-2.61;84.29;101397.34;1571028;90;20966;-76
2022/01/10 10:05:58;;;;;;;98.47;47.78;;;;;;;-2.52;84.30;101404.50;1560737;90;20970;-76
2022/01/10 10:08:27;;;;;;;92.75;48.00;;;;;;;-2.48;84.32;101400.05;1556006;90;20966;-76
2022/01/10 10:10:55;;;;;;;84.87;45.00;;;;;;;-2.41;84.29;101406.77;1554456;90;20969;-76
2022/01/10 10:13:21;;;;;;;91.17;46.00;;;;;;;-2.37;84.26;101404.85;1572990;90;20923;-76
2022/01/10 10:15:48;;;;;;;93.92;45.23;;;;;;;-2.31;84.27;101407.20;1545491;90;21414;-76
2022/01/10 10:18:17;;;;;;;84.77;44.85;;;;;;;-2.27;84.28;101417.56;1573690;90;20989;-76
2022/01/10 10:20:45;;;;;;;83.07;42.35;;;;;;;-2.22;84.30;101417.39;1541328;90;20925;-71
2022/01/10 10:23:15;;;;;;;92.15;45.10;;;;;;;-2.16;84.31;101420.62;1539659;90;21521;-71
2022/01/10 10:25:53;;;;;;;82.70;44.40;;;;;;;-2.11;84.31;101426.37;1562628;90;21028;-75
2022/01/10 10:28:21;;;;;;;87.15;43.98;;;;;;;-2.05;84.33;101434.64;1553000;90;20983;-72
2022/01/10 10:30:48;;;;;;;91.35;43.50;;;;;;;-1.98;84.35;101432.00;1565616;90;20949;-72
2022/01/10 10:33:23;;;;;;;89.17;44.50;;;;;;;-1.92;84.35;101438.23;1540691;91;20990;-72
2022/01/10 10:36:07;;;;;;;84.62;42.95;;;;;;;-1.86;84.36;101439.78;1559956;90;21015;-73
2022/01/10 10:38:32;;;;;;;86.80;42.70;;;;;;;-1.79;84.37;101438.01;1588429;88;21047;-73
2022/01/10 10:41:04;;;;;;;83.85;41.68;;;;;;;-1.71;84.40;101446.84;1590032;88;21086;-72
2022/01/10 10:43:36;;;;;;;82.30;43.98;;;;;;;-1.64;84.37;101454.34;1603334;88;20891;-72
2022/01/10 10:46:04;;;;;;;83.47;40.63;;;;;;;-1.58;84.42;101455.89;1594763;88;20969;-73
2022/01/10 10:48:34;;;;;;;87.10;45.50;;;;;;;-1.52;84.42;101462.48;1594706;88;21072;-73
2022/01/10 10:51:01;;;;;;;88.45;44.30;;;;;;;-1.45;84.44;101469.58;1597432;88;20933;-73
2022/01/10 10:53:29;;;;;;;83.07;41.73;;;;;;;-1.39;84.39;101473.66;1589597;88;20937;-72
2022/01/10 10:55:58;;;;;;;101.30;45.60;;;;;;;-1.32;84.39;101480.29;1595699;88;20962;-72
2022/01/10 10:58:26;;;;;;;80.38;41.63;;;;;;;-1.28;84.36;101479.62;1591743;88;21016;-73
2022/01/10 11:00:57;;;;;;;85.83;41.42;;;;;;;-1.24;84.34;101492.92;1605658;88;21112;-73
2022/01/10 11:03:24;;;;;;;80.92;40.58;;;;;;;-1.20;84.36;101485.92;1601209;88;21947;-72
2022/01/10 11:05:57;;;;;;;77.75;40.55;;;;;;;-1.15;84.36;101478.12;1578245;88;20978;-72
2022/01/10 11:08:25;;;;;;;77.80;38.63;;;;;;;-1.13;84.33;101495.16;1598037;87;20961;-72
2022/01/10 11:10:52;;;;;;;73.75;38.20;;;;;;;-1.08;84.36;101505.11;1606654;87;20966;-73
2022/01/10 11:13:21;;;;;;;65.15;34.83;;;;;;;-1.04;84.30;101494.70;1614648;87;20950;-73
2022/01/10 11:15:48;;;;;;;76.00;38.40;;;;;;;-1.00;84.33;101501.62;1590395;87;20998;-73
2022/01/10 11:18:15;;;;;;;76.97;39.45;;;;;;;-0.96;84.24;101506.44;1598133;87;21008;-72
2022/01/10 11:20:50;;;;;;;68.87;37.35;;;;;;;-0.96;84.24;101505.16;1607612;87;20986;-72
2022/01/10 11:23:17;;;;;;;75.83;40.28;;;;;;;-0.92;84.26;101508.31;1607908;87;20930;-73
2022/01/10 11:25:43;;;;;;;84.00;40.73;;;;;;;-0.88;84.28;101519.06;1574398;89;27316;-73